createdAt,value
2019-04-16T00:02:11.130Z,9.78
2019-04-16T00:04:47.243Z,9.58
2019-04-16T00:07:35.376Z,9.49
2019-04-16T00:10:07.373Z,9.25
2019-04-16T00:12:55.597Z,9.26
2019-04-16T00:15:24.011Z,9.15
2019-04-16T00:17:52.425Z,8.98
2019-04-16T00:20:20.824Z,8.92
2019-04-16T00:22:59.944Z,8.78
2019-04-16T00:25:28.496Z,8.67
2019-04-16T00:27:59.556Z,8.76
2019-04-16T00:30:27.031Z,8.55
2019-04-16T00:32:55.825Z,8.49
2019-04-16T00:35:24.219Z,8.29
2019-04-16T00:37:52.617Z,8.28
2019-04-16T00:40:21.038Z,8.32
2019-04-16T00:42:49.433Z,8.28
2019-04-16T00:45:17.917Z,8.21
2019-04-16T00:47:48.022Z,8.16
2019-04-16T00:50:16.460Z,8.03
2019-04-16T00:52:44.871Z,7.97
2019-04-16T00:55:14.671Z,7.84
2019-04-16T00:57:43.329Z,7.89
2019-04-16T01:00:11.993Z,7.88
2019-04-16T01:02:40.410Z,7.79
2019-04-16T01:05:09.086Z,7.76
2019-04-16T01:07:37.543Z,7.75
2019-04-16T01:10:06.175Z,7.65
2019-04-16T01:12:34.583Z,7.55
2019-04-16T01:15:02.985Z,7.48
2019-04-16T01:17:33.475Z,7.44
2019-04-16T01:20:01.528Z,7.42
2019-04-16T01:22:29.929Z,7.40
2019-04-16T01:24:58.360Z,7.41
2019-04-16T01:27:31.081Z,7.34
2019-04-16T01:29:59.610Z,7.32
2019-04-16T01:32:44.940Z,7.00
2019-04-16T01:35:30.072Z,6.93
2019-04-16T01:38:16.441Z,7.03
2019-04-16T01:40:52.435Z,6.96
2019-04-16T01:43:25.540Z,6.92
2019-04-16T01:45:50.964Z,6.81
2019-04-16T01:48:19.382Z,6.78
2019-04-16T01:50:47.783Z,6.84
2019-04-16T01:53:18.313Z,6.84
2019-04-16T01:55:46.414Z,6.79
2019-04-16T01:58:14.848Z,6.74
2019-04-16T02:00:43.225Z,6.82
2019-04-16T02:03:11.700Z,6.69
2019-04-16T02:05:40.192Z,6.42
2019-04-16T02:08:08.670Z,6.36
2019-04-16T02:10:38.326Z,6.35
2019-04-16T02:13:07.226Z,6.44
2019-04-16T02:15:35.655Z,6.44
2019-04-16T02:18:04.193Z,6.40
2019-04-16T02:20:32.611Z,6.25
2019-04-16T02:23:01.152Z,6.22
2019-04-16T02:25:29.495Z,6.24
2019-04-16T02:27:57.912Z,6.24
2019-04-16T02:30:26.361Z,6.21
2019-04-16T02:32:54.736Z,6.14
2019-04-16T02:35:23.146Z,6.08
2019-04-16T02:37:51.560Z,5.98
2019-04-16T02:40:20.090Z,6.01
2019-04-16T02:42:48.527Z,6.04
2019-04-16T02:45:22.964Z,6.03
2019-04-16T02:47:47.146Z,6.03
2019-04-16T02:50:17.347Z,5.99
2019-04-16T02:52:52.326Z,5.99
2019-04-16T02:55:28.092Z,5.88
2019-04-16T02:58:01.903Z,5.86
2019-04-16T03:00:35.372Z,5.85
2019-04-16T03:03:07.837Z,5.82
2019-04-16T03:05:37.964Z,5.85
2019-04-16T03:08:06.454Z,5.72
2019-04-16T03:10:34.971Z,5.65
2019-04-16T03:13:03.443Z,5.76
2019-04-16T03:15:49.335Z,5.68
2019-04-16T03:18:19.384Z,5.77
2019-04-16T03:20:47.899Z,5.71
2019-04-16T03:23:16.312Z,5.62
2019-04-16T03:25:45.180Z,5.59
2019-04-16T03:28:14.272Z,5.65
2019-04-16T03:30:42.963Z,5.58
2019-04-16T03:33:14.255Z,5.67
2019-04-16T03:35:41.602Z,5.74
2019-04-16T03:38:10.011Z,5.62
2019-04-16T03:40:38.421Z,5.53
2019-04-16T03:43:06.886Z,5.48
2019-04-16T03:45:37.478Z,5.42
2019-04-16T03:48:05.439Z,5.34
2019-04-16T03:50:33.839Z,5.28
2019-04-16T03:53:02.247Z,5.40
2019-04-16T03:55:30.656Z,5.39
2019-04-16T03:57:59.056Z,5.35
2019-04-16T04:00:27.545Z,5.42
2019-04-16T04:02:55.945Z,5.40
2019-04-16T04:05:24.339Z,5.33
2019-04-16T04:07:55.481Z,5.29
2019-04-16T04:10:30.809Z,5.34
2019-04-16T04:12:54.481Z,5.28
2019-04-16T04:15:25.996Z,5.31
2019-04-16T04:17:53.108Z,5.22
2019-04-16T04:20:21.525Z,5.24
2019-04-16T04:22:49.996Z,5.23
2019-04-16T04:25:18.409Z,5.20
2019-04-16T04:27:47.757Z,5.06
2019-04-16T04:30:18.669Z,5.02
2019-04-16T04:32:47.725Z,5.03
2019-04-16T04:35:20.549Z,5.00
2019-04-16T04:37:46.504Z,5.00
2019-04-16T04:40:15.878Z,4.87
2019-04-16T04:42:45.054Z,4.80
2019-04-16T04:45:13.524Z,4.73
2019-04-16T04:47:41.938Z,4.81
2019-04-16T04:50:10.792Z,4.84
2019-04-16T04:52:39.216Z,4.91
2019-04-16T04:55:07.861Z,4.91
2019-04-16T04:57:36.301Z,4.96
2019-04-16T05:00:08.472Z,4.94
2019-04-16T05:02:37.391Z,4.92
2019-04-16T05:05:08.837Z,4.80
2019-04-16T05:07:37.210Z,4.70
2019-04-16T05:10:08.312Z,4.76
2019-04-16T05:12:37.065Z,4.83
2019-04-16T05:15:08.657Z,4.70
2019-04-16T05:17:38.611Z,4.76
2019-04-16T05:20:07.707Z,4.75
2019-04-16T05:22:36.123Z,4.82
2019-04-16T05:25:05.573Z,4.82
2019-04-16T05:27:33.992Z,4.84
2019-04-16T05:30:02.465Z,4.89
2019-04-16T05:32:33.998Z,4.90
2019-04-16T05:35:00.990Z,4.90
2019-04-16T05:37:29.421Z,4.93
2019-04-16T05:39:58.821Z,4.96
2019-04-16T05:42:28.150Z,5.00
2019-04-16T05:44:56.613Z,4.98
2019-04-16T05:47:25.190Z,5.08
2019-04-16T05:49:54.412Z,5.12
2019-04-16T05:52:23.794Z,5.17
2019-04-16T05:54:56.508Z,5.21
2019-04-16T05:57:27.491Z,5.23
2019-04-16T05:59:56.052Z,5.24
2019-04-16T06:02:26.196Z,5.28
2019-04-16T06:04:55.865Z,5.37
2019-04-16T06:07:24.718Z,5.46
2019-04-16T06:09:53.148Z,5.60
2019-04-16T06:12:23.180Z,5.66
2019-04-16T06:14:59.025Z,5.79
2019-04-16T06:17:32.824Z,5.88
2019-04-16T06:20:18.998Z,5.98
2019-04-16T06:22:49.296Z,6.08
2019-04-16T06:25:28.520Z,6.18
2019-04-16T06:28:01.541Z,6.29
2019-04-16T06:30:37.362Z,6.38
2019-04-16T06:33:15.901Z,6.48
2019-04-16T06:35:54.643Z,6.56
2019-04-16T06:38:33.799Z,6.64
2019-04-16T06:41:19.975Z,6.74
2019-04-16T06:43:58.293Z,6.86
2019-04-16T06:46:29.543Z,6.97
2019-04-16T06:49:18.883Z,7.05
2019-04-16T06:52:01.098Z,7.13
2019-04-16T06:54:45.483Z,7.19
2019-04-16T06:57:15.005Z,7.26
2019-04-16T07:00:02.410Z,7.33
2019-04-16T07:02:37.270Z,7.37
2019-04-16T07:05:04.823Z,7.55
2019-04-16T07:07:39.862Z,7.73
2019-04-16T07:10:07.424Z,7.87
2019-04-16T07:12:38.427Z,8.05
2019-04-16T07:15:09.215Z,8.15
2019-04-16T07:17:40.327Z,8.26
2019-04-16T07:20:13.029Z,8.39
2019-04-16T07:22:39.798Z,8.43
2019-04-16T07:25:08.380Z,8.48
2019-04-16T07:27:44.021Z,8.47
2019-04-16T07:30:20.860Z,8.42
2019-04-16T07:33:07.535Z,8.47
2019-04-16T07:35:55.663Z,8.58
2019-04-16T07:38:35.198Z,8.66
2019-04-16T07:41:23.106Z,8.69
2019-04-16T07:44:10.996Z,7.72
2019-04-16T07:46:47.120Z,8.70
2019-04-16T07:49:35.406Z,8.78
2019-04-16T07:52:12.253Z,8.90
2019-04-16T07:54:45.468Z,8.92
2019-04-16T07:57:13.903Z,9.21
2019-04-16T07:59:42.322Z,9.33
2019-04-16T08:02:10.819Z,9.55
2019-04-16T08:04:39.222Z,9.68
2019-04-16T08:07:07.653Z,9.66
2019-04-16T08:09:36.126Z,9.81
2019-04-16T08:12:04.871Z,9.80
2019-04-16T08:14:34.746Z,9.87
2019-04-16T08:17:03.231Z,9.98
2019-04-16T08:19:37.242Z,10.07
2019-04-16T08:22:01.865Z,10.20
2019-04-16T08:24:31.964Z,10.28
2019-04-16T08:27:00.370Z,10.55
2019-04-16T08:29:29.080Z,10.85
2019-04-16T08:31:57.497Z,11.00
2019-04-16T08:34:25.926Z,10.95
2019-04-16T08:36:54.451Z,10.96
2019-04-16T08:39:22.925Z,10.73
2019-04-16T08:41:52.509Z,11.30
2019-04-16T08:44:21.521Z,11.33
2019-04-16T08:46:49.926Z,11.50
2019-04-16T08:49:22.070Z,11.50
2019-04-16T08:51:48.510Z,11.73
2019-04-16T08:54:18.281Z,11.83
2019-04-16T08:56:47.273Z,11.79
2019-04-16T08:59:15.701Z,11.95
2019-04-16T09:01:44.174Z,11.98
2019-04-16T09:04:12.682Z,12.10
2019-04-16T09:06:42.701Z,11.94
2019-04-16T09:09:18.517Z,12.02
2019-04-16T09:11:48.578Z,12.15
2019-04-16T09:14:20.930Z,12.13
2019-04-16T09:17:04.653Z,12.16
2019-04-16T09:19:33.597Z,12.44
2019-04-16T09:22:02.022Z,12.47
2019-04-16T09:24:32.173Z,12.47
2019-04-16T09:27:13.410Z,12.52
2019-04-16T09:29:59.218Z,12.58
2019-04-16T09:32:29.362Z,12.53
2019-04-16T09:35:09.847Z,12.47
2019-04-16T09:37:52.040Z,12.30
2019-04-16T09:40:27.915Z,12.44
2019-04-16T09:42:57.027Z,12.61
2019-04-16T09:45:25.601Z,12.69
2019-04-16T09:47:54.036Z,12.90
2019-04-16T09:50:22.651Z,13.03
2019-04-16T09:52:52.422Z,13.25
2019-04-16T09:55:21.185Z,13.17
2019-04-16T09:57:49.624Z,13.06
2019-04-16T10:00:32.118Z,13.31
2019-04-16T10:03:14.506Z,13.26
2019-04-16T10:05:42.911Z,13.43
2019-04-16T10:08:12.601Z,13.55
2019-04-16T10:10:41.761Z,13.55
2019-04-16T10:13:10.221Z,13.51
2019-04-16T10:15:38.608Z,13.63
2019-04-16T10:18:07.144Z,13.77
2019-04-16T10:20:35.544Z,13.91
2019-04-16T10:23:05.611Z,14.02
2019-04-16T10:25:34.007Z,13.83
2019-04-16T10:28:05.063Z,13.93
2019-04-16T10:30:38.684Z,14.20
2019-04-16T10:33:07.163Z,14.15
2019-04-16T10:35:35.580Z,14.31
2019-04-16T10:38:05.701Z,14.35
2019-04-16T10:40:35.818Z,14.21
2019-04-16T10:43:21.146Z,14.42
2019-04-16T10:45:54.300Z,14.49
2019-04-16T10:48:30.093Z,14.62
2019-04-16T10:51:00.231Z,14.66
2019-04-16T10:53:36.300Z,14.67
2019-04-16T10:56:06.447Z,14.41
2019-04-16T10:58:52.880Z,14.40
2019-04-16T11:01:29.894Z,14.77
2019-04-16T11:04:14.147Z,14.63
2019-04-16T11:06:44.211Z,14.37
2019-04-16T11:09:12.641Z,14.52
2019-04-16T11:11:41.156Z,14.55
2019-04-16T11:14:09.612Z,14.53
2019-04-16T11:16:39.892Z,14.59
2019-04-16T11:19:08.378Z,14.80
2019-04-16T11:21:36.787Z,14.93
2019-04-16T11:24:05.207Z,15.16
2019-04-16T11:26:33.680Z,15.26
2019-04-16T11:29:02.114Z,15.24
2019-04-16T11:31:30.709Z,15.22
2019-04-16T11:33:59.108Z,15.31
2019-04-16T11:36:30.642Z,15.48
2019-04-16T11:38:57.676Z,15.62
2019-04-16T11:41:26.271Z,15.73
2019-04-16T11:43:54.699Z,15.80
2019-04-16T11:46:23.140Z,15.72
2019-04-16T11:48:51.605Z,15.64
2019-04-16T11:51:20.060Z,15.76
2019-04-16T11:53:48.579Z,15.77
2019-04-16T11:56:16.989Z,16.01
2019-04-16T11:58:46.384Z,16.13
2019-04-16T12:01:35.285Z,16.15
2019-04-16T12:04:05.487Z,16.14
2019-04-16T12:06:35.552Z,16.45
2019-04-16T12:09:16.107Z,16.67
2019-04-16T12:11:49.051Z,16.51
2019-04-16T12:14:30.743Z,16.50
2019-04-16T12:16:53.935Z,16.67
2019-04-16T12:19:33.225Z,16.72
2019-04-16T12:22:21.354Z,16.85
2019-04-16T12:25:06.484Z,17.20
2019-04-16T12:27:36.670Z,17.62
2019-04-16T12:30:14.200Z,17.86
2019-04-16T12:32:47.328Z,18.37
2019-04-16T12:35:22.997Z,18.96
2019-04-16T12:38:05.235Z,19.41
2019-04-16T12:40:42.341Z,19.69
2019-04-16T12:43:18.630Z,19.90
2019-04-16T12:46:00.662Z,19.97
2019-04-16T12:48:39.962Z,20.26
2019-04-16T12:51:10.059Z,20.54
2019-04-16T12:53:53.420Z,20.64
2019-04-16T12:56:41.270Z,20.82
2019-04-16T12:59:11.456Z,21.03
2019-04-16T13:01:53.680Z,21.33
2019-04-16T13:04:39.907Z,21.47
2019-04-16T13:07:25.844Z,21.50
2019-04-16T13:09:55.889Z,21.44
2019-04-16T13:12:25.955Z,21.13
2019-04-16T13:15:12.409Z,21.31
2019-04-16T13:17:50.804Z,21.54
2019-04-16T13:20:36.811Z,21.47
2019-04-16T13:23:15.813Z,21.74
2019-04-16T13:25:57.647Z,21.76
2019-04-16T13:28:26.025Z,21.69
2019-04-16T13:30:54.449Z,21.80
2019-04-16T13:33:22.859Z,21.84
2019-04-16T13:35:51.268Z,21.88
2019-04-16T13:38:21.338Z,22.06
2019-04-16T13:40:50.215Z,21.79
2019-04-16T13:43:27.347Z,21.85
2019-04-16T13:45:58.093Z,22.12
2019-04-16T13:48:43.165Z,21.97
2019-04-16T13:51:18.493Z,21.96
2019-04-16T13:53:54.114Z,21.68
2019-04-16T13:56:24.188Z,21.79
2019-04-16T13:58:56.083Z,21.92
2019-04-16T14:01:26.101Z,21.80
2019-04-16T14:03:56.368Z,21.56
2019-04-16T14:06:24.661Z,21.41
2019-04-16T14:08:53.157Z,21.32
2019-04-16T14:11:21.702Z,21.15
2019-04-16T14:13:50.365Z,21.05
2019-04-16T14:16:18.762Z,20.91
2019-04-16T14:18:47.167Z,20.58
2019-04-16T14:21:15.634Z,20.38
2019-04-16T14:23:44.056Z,20.19
2019-04-16T14:26:12.477Z,20.00
2019-04-16T14:28:51.745Z,19.92
2019-04-16T14:31:16.564Z,19.91
2019-04-16T14:33:55.101Z,19.94
2019-04-16T14:36:23.518Z,20.03
2019-04-16T14:38:53.651Z,20.21
2019-04-16T14:41:22.078Z,20.13
2019-04-16T14:44:04.107Z,20.20
2019-04-16T14:46:32.541Z,20.22
2019-04-16T14:49:00.969Z,20.23
2019-04-16T14:51:29.392Z,20.31
2019-04-16T14:54:11.443Z,20.43
2019-04-16T14:56:41.575Z,20.46
2019-04-16T14:59:29.966Z,20.44
2019-04-16T15:01:46.189Z,20.41
2019-04-16T15:04:16.323Z,20.25
2019-04-16T15:06:52.764Z,20.04
2019-04-16T15:09:35.853Z,19.90
2019-04-16T15:12:08.391Z,19.79
2019-04-16T15:14:37.934Z,19.84
2019-04-16T15:17:08.019Z,19.83
2019-04-16T15:19:43.977Z,19.86
2019-04-16T15:22:29.091Z,19.86
2019-04-16T15:25:14.126Z,19.93
2019-04-16T15:27:53.241Z,19.82
2019-04-16T15:30:29.383Z,19.84
2019-04-16T15:33:14.763Z,19.94
2019-04-16T15:35:46.597Z,19.94
2019-04-16T15:38:26.588Z,20.02
2019-04-16T15:40:57.055Z,20.04
2019-04-16T15:43:32.884Z,19.98
2019-04-16T15:46:25.282Z,19.98
2019-04-16T15:48:40.818Z,20.03
2019-04-16T15:51:19.668Z,20.09
2019-04-16T15:53:50.512Z,20.03
2019-04-16T15:56:21.387Z,19.98
2019-04-16T15:58:54.113Z,19.89
2019-04-16T16:01:24.185Z,19.71
2019-04-16T16:04:09.445Z,19.59
2019-04-16T16:06:39.745Z,19.44
2019-04-16T16:09:18.710Z,19.36
2019-04-16T16:11:51.930Z,19.32
2019-04-16T16:14:20.391Z,19.29
2019-04-16T16:16:50.763Z,19.26
2019-04-16T16:19:18.960Z,19.19
2019-04-16T16:21:47.364Z,19.03
2019-04-16T16:24:15.781Z,18.91
2019-04-16T16:26:44.178Z,18.79
2019-04-16T16:29:12.715Z,18.69
2019-04-16T16:31:41.121Z,18.58
2019-04-16T16:34:09.661Z,18.54
2019-04-16T16:36:40.643Z,18.45
2019-04-16T16:39:08.172Z,18.35
2019-04-16T16:41:36.592Z,18.22
2019-04-16T16:44:05.131Z,18.08
2019-04-16T16:46:57.286Z,17.99
2019-04-16T16:49:23.518Z,17.88
2019-04-16T16:52:11.362Z,17.67
2019-04-16T16:54:40.929Z,17.63
2019-04-16T16:57:13.997Z,17.59
2019-04-16T16:59:46.813Z,17.45
2019-04-16T17:02:16.917Z,17.38
2019-04-16T17:04:47.137Z,17.42
2019-04-16T17:07:17.679Z,17.35
2019-04-16T17:09:45.815Z,17.28
2019-04-16T17:12:14.303Z,17.26
2019-04-16T17:14:42.801Z,17.18
2019-04-16T17:17:14.721Z,17.13
2019-04-16T17:19:41.501Z,17.10
2019-04-16T17:22:09.989Z,17.10
2019-04-16T17:24:38.466Z,17.06
2019-04-16T17:27:07.084Z,16.97
2019-04-16T17:29:35.483Z,16.90
2019-04-16T17:32:04.055Z,16.73
2019-04-16T17:34:38.527Z,16.52
2019-04-16T17:37:02.605Z,16.49
2019-04-16T17:39:32.694Z,16.40
2019-04-16T17:42:05.682Z,16.32
2019-04-16T17:44:38.903Z,16.30
2019-04-16T17:47:31.292Z,16.33
2019-04-16T17:50:03.697Z,16.30
2019-04-16T17:52:45.324Z,16.27
2019-04-16T17:55:15.420Z,16.19
2019-04-16T17:57:47.956Z,16.19
2019-04-16T18:00:34.705Z,16.19
2019-04-16T18:03:05.262Z,16.13
2019-04-16T18:05:44.213Z,16.01
2019-04-16T18:08:30.488Z,15.98
2019-04-16T18:11:00.539Z,15.95
2019-04-16T18:13:36.796Z,15.93
2019-04-16T18:16:06.867Z,15.88
2019-04-16T18:18:39.428Z,15.81
2019-04-16T18:21:24.817Z,15.81
2019-04-16T18:24:00.888Z,15.85
2019-04-16T18:26:31.030Z,15.83
2019-04-16T18:29:17.153Z,15.81
2019-04-16T18:31:52.475Z,15.79
2019-04-16T18:34:24.235Z,15.79
2019-04-16T18:37:00.590Z,15.71
2019-04-16T18:39:37.408Z,15.64
2019-04-16T18:42:11.266Z,15.65
2019-04-16T18:44:51.331Z,15.60
2019-04-16T18:47:22.013Z,15.52
2019-04-16T18:49:52.425Z,15.52
2019-04-16T18:52:20.976Z,15.46
2019-04-16T18:54:50.013Z,15.41
2019-04-16T18:57:18.521Z,15.40
2019-04-16T18:59:46.956Z,15.34
2019-04-16T19:02:15.358Z,15.31
2019-04-16T19:04:43.822Z,15.27
2019-04-16T19:07:12.228Z,15.23
2019-04-16T19:09:40.621Z,15.18
2019-04-16T19:12:09.183Z,15.11
2019-04-16T19:14:37.767Z,15.13
2019-04-16T19:17:06.429Z,15.14
2019-04-16T19:19:34.930Z,15.10
2019-04-16T19:22:03.709Z,15.08
2019-04-16T19:24:32.301Z,15.03
2019-04-16T19:27:00.765Z,15.00
2019-04-16T19:29:29.329Z,14.95
2019-04-16T19:31:57.828Z,14.89
2019-04-16T19:34:26.336Z,14.81
2019-04-16T19:36:55.914Z,14.81
2019-04-16T19:39:25.046Z,14.75
2019-04-16T19:41:57.494Z,14.72
2019-04-16T19:44:23.866Z,11.78
2019-04-16T19:46:54.240Z,14.68
2019-04-16T19:49:23.027Z,14.62
2019-04-16T19:51:51.739Z,14.56
2019-04-16T19:54:20.412Z,14.52
2019-04-16T19:56:51.345Z,14.54
2019-04-16T19:59:19.442Z,14.56
2019-04-16T20:01:48.210Z,14.56
2019-04-16T20:04:16.813Z,14.55
2019-04-16T20:06:45.465Z,14.54
2019-04-16T20:09:13.967Z,14.49
2019-04-16T20:11:42.389Z,14.47
2019-04-16T20:14:10.819Z,14.46
2019-04-16T20:16:39.257Z,14.44
2019-04-16T20:19:07.795Z,14.39
2019-04-16T20:21:37.929Z,14.34
2019-04-16T20:24:06.649Z,14.28
2019-04-16T20:26:35.160Z,14.24
2019-04-16T20:29:03.688Z,14.21
2019-04-16T20:31:35.026Z,14.18
2019-04-16T20:34:03.488Z,14.05
2019-04-16T20:36:32.057Z,13.99
2019-04-16T20:39:00.473Z,13.95
2019-04-16T20:41:28.874Z,13.94
2019-04-16T20:43:57.318Z,13.92
2019-04-16T20:46:25.742Z,13.87
2019-04-16T20:49:06.454Z,13.82
2019-04-16T20:51:26.533Z,13.75
2019-04-16T20:53:54.794Z,13.60
2019-04-16T20:56:23.181Z,11.31
2019-04-16T20:58:51.612Z,13.25
2019-04-16T21:01:33.002Z,13.23
2019-04-16T21:04:04.681Z,13.16
2019-04-16T21:06:29.380Z,12.99
2019-04-16T21:08:58.294Z,13.03
2019-04-16T21:11:26.923Z,13.13
2019-04-16T21:13:55.307Z,13.03
2019-04-16T21:16:23.718Z,12.88
2019-04-16T21:18:52.130Z,12.70
2019-04-16T21:21:23.386Z,12.58
2019-04-16T21:23:50.706Z,12.55
2019-04-16T21:26:19.932Z,12.62
2019-04-16T21:29:05.167Z,12.70
2019-04-16T21:31:42.321Z,12.62
2019-04-16T21:34:12.814Z,12.47
2019-04-16T21:36:51.667Z,12.37
2019-04-16T21:39:30.526Z,12.41
2019-04-16T21:42:02.395Z,12.31
2019-04-16T21:44:29.067Z,12.21
2019-04-16T21:46:58.305Z,12.05
2019-04-16T21:49:38.561Z,11.98
2019-04-16T21:52:08.888Z,11.92
2019-04-16T21:54:39.238Z,11.94
2019-04-16T21:57:09.850Z,11.94
2019-04-16T21:59:38.102Z,11.77
2019-04-16T22:02:24.647Z,11.81
2019-04-16T22:04:53.189Z,11.82
2019-04-16T22:07:24.680Z,11.61
2019-04-16T22:09:51.814Z,11.63
2019-04-16T22:12:20.295Z,11.58
2019-04-16T22:14:50.911Z,11.55
2019-04-16T22:17:18.875Z,11.58
2019-04-16T22:19:54.304Z,11.63
2019-04-16T22:22:17.448Z,11.48
2019-04-16T22:24:45.845Z,11.42
2019-04-16T22:27:14.278Z,11.34
2019-04-16T22:29:47.277Z,11.31
2019-04-16T22:32:12.840Z,11.39
2019-04-16T22:34:41.339Z,11.43
2019-04-16T22:37:09.758Z,11.41
2019-04-16T22:39:56.535Z,11.27
2019-04-16T22:42:41.932Z,11.23
2019-04-16T22:45:14.899Z,11.13
2019-04-16T22:47:44.962Z,11.13
2019-04-16T22:50:16.847Z,11.01
2019-04-16T22:52:44.969Z,11.00
2019-04-16T22:55:13.708Z,11.10
2019-04-16T22:57:42.111Z,11.17
2019-04-16T23:00:13.109Z,11.28
2019-04-16T23:02:41.601Z,11.29
2019-04-16T23:05:10.085Z,11.11
2019-04-16T23:07:39.670Z,10.99
2019-04-16T23:10:08.779Z,10.86
2019-04-16T23:12:37.190Z,10.90
2019-04-16T23:15:08.121Z,10.86
2019-04-16T23:17:36.532Z,10.87
2019-04-16T23:20:06.191Z,11.03
2019-04-16T23:22:34.786Z,11.04
2019-04-16T23:25:03.393Z,11.05
2019-04-16T23:27:37.174Z,11.06
2019-04-16T23:30:02.072Z,11.11
2019-04-16T23:32:30.538Z,10.96
2019-04-16T23:34:59.317Z,10.87
2019-04-16T23:37:27.647Z,10.97
2019-04-16T23:39:56.074Z,11.00
2019-04-16T23:42:24.502Z,11.01
2019-04-16T23:44:57.785Z,11.11
2019-04-16T23:47:26.327Z,11.21
2019-04-16T23:49:56.433Z,11.26
2019-04-16T23:52:35.504Z,11.26
2019-04-16T23:55:06.215Z,11.29
2019-04-16T23:57:38.977Z,11.26
